sensor_id;sensor_type;location;lat;lon;timestamp;temperature;humidity
49413;DHT22;35493;50.276;9.372;2023-02-15T00:01:47;3.20;86.10
49413;DHT22;35493;50.276;9.372;2023-02-15T00:04:16;3.20;86.00
49413;DHT22;35493;50.276;9.372;2023-02-15T00:06:44;3.20;86.00
49413;DHT22;35493;50.276;9.372;2023-02-15T00:09:11;3.20;86.10
49413;DHT22;35493;50.276;9.372;2023-02-15T00:11:38;3.10;86.10
49413;DHT22;35493;50.276;9.372;2023-02-15T00:14:22;3.10;86.10
49413;DHT22;35493;50.276;9.372;2023-02-15T00:16:51;3.10;86.20
49413;DHT22;35493;50.276;9.372;2023-02-15T00:19:20;3.10;86.20
49413;DHT22;35493;50.276;9.372;2023-02-15T00:21:48;3.10;86.30
49413;DHT22;35493;50.276;9.372;2023-02-15T00:24:17;3.00;86.30
49413;DHT22;35493;50.276;9.372;2023-02-15T00:26:45;3.00;86.30
49413;DHT22;35493;50.276;9.372;2023-02-15T00:29:14;3.00;86.20
49413;DHT22;35493;50.276;9.372;2023-02-15T00:31:43;3.00;86.10
49413;DHT22;35493;50.276;9.372;2023-02-15T00:34:12;3.10;86.10
49413;DHT22;35493;50.276;9.372;2023-02-15T00:36:40;3.10;86.10
49413;DHT22;35493;50.276;9.372;2023-02-15T00:39:07;3.10;86.10
49413;DHT22;35493;50.276;9.372;2023-02-15T00:41:35;3.00;86.10
49413;DHT22;35493;50.276;9.372;2023-02-15T00:44:03;3.10;86.00
49413;DHT22;35493;50.276;9.372;2023-02-15T00:46:31;3.10;86.10
49413;DHT22;35493;50.276;9.372;2023-02-15T00:49:01;3.00;86.10
49413;DHT22;35493;50.276;9.372;2023-02-15T00:51:29;3.10;86.10
49413;DHT22;35493;50.276;9.372;2023-02-15T00:53:56;3.10;86.10
49413;DHT22;35493;50.276;9.372;2023-02-15T00:56:23;3.10;86.10
49413;DHT22;35493;50.276;9.372;2023-02-15T00:58:50;3.10;85.90
49413;DHT22;35493;50.276;9.372;2023-02-15T01:01:18;3.00;86.00
49413;DHT22;35493;50.276;9.372;2023-02-15T01:03:46;3.00;86.00
49413;DHT22;35493;50.276;9.372;2023-02-15T01:06:15;3.00;86.00
49413;DHT22;35493;50.276;9.372;2023-02-15T01:08:42;3.10;85.90
49413;DHT22;35493;50.276;9.372;2023-02-15T01:11:11;3.00;86.00
49413;DHT22;35493;50.276;9.372;2023-02-15T01:13:39;3.00;86.00
49413;DHT22;35493;50.276;9.372;2023-02-15T01:16:07;3.00;86.00
49413;DHT22;35493;50.276;9.372;2023-02-15T01:18:34;2.90;85.90
49413;DHT22;35493;50.276;9.372;2023-02-15T01:21:09;2.90;85.80
49413;DHT22;35493;50.276;9.372;2023-02-15T01:23:37;2.90;86.00
49413;DHT22;35493;50.276;9.372;2023-02-15T01:26:04;2.90;85.80
49413;DHT22;35493;50.276;9.372;2023-02-15T01:28:31;2.90;85.90
49413;DHT22;35493;50.276;9.372;2023-02-15T01:30:58;2.90;86.00
49413;DHT22;35493;50.276;9.372;2023-02-15T01:33:25;2.80;85.90
49413;DHT22;35493;50.276;9.372;2023-02-15T01:35:56;2.80;85.90
49413;DHT22;35493;50.276;9.372;2023-02-15T01:38:23;2.80;85.90
49413;DHT22;35493;50.276;9.372;2023-02-15T01:40:52;2.80;86.10
49413;DHT22;35493;50.276;9.372;2023-02-15T01:43:19;2.80;86.00
49413;DHT22;35493;50.276;9.372;2023-02-15T01:45:48;2.80;86.00
49413;DHT22;35493;50.276;9.372;2023-02-15T01:48:19;2.80;85.70
49413;DHT22;35493;50.276;9.372;2023-02-15T01:50:50;2.80;85.70
49413;DHT22;35493;50.276;9.372;2023-02-15T01:53:23;2.80;85.70
49413;DHT22;35493;50.276;9.372;2023-02-15T01:55:57;2.80;85.80
49413;DHT22;35493;50.276;9.372;2023-02-15T01:58:26;2.80;85.90
49413;DHT22;35493;50.276;9.372;2023-02-15T02:00:57;2.80;85.80
49413;DHT22;35493;50.276;9.372;2023-02-15T02:03:33;2.80;85.70
49413;DHT22;35493;50.276;9.372;2023-02-15T02:06:03;2.70;85.60
49413;DHT22;35493;50.276;9.372;2023-02-15T02:08:31;2.70;85.70
49413;DHT22;35493;50.276;9.372;2023-02-15T02:11:00;2.70;85.80
49413;DHT22;35493;50.276;9.372;2023-02-15T02:13:27;2.70;85.70
49413;DHT22;35493;50.276;9.372;2023-02-15T02:16:00;2.70;85.70
49413;DHT22;35493;50.276;9.372;2023-02-15T02:18:40;2.70;85.40
49413;DHT22;35493;50.276;9.372;2023-02-15T02:21:44;2.70;85.50
49413;DHT22;35493;50.276;9.372;2023-02-15T02:24:39;2.60;85.50
49413;DHT22;35493;50.276;9.372;2023-02-15T02:27:22;2.70;85.40
49413;DHT22;35493;50.276;9.372;2023-02-15T02:33:35;2.50;85.40
49413;DHT22;35493;50.276;9.372;2023-02-15T02:36:18;2.50;85.60
49413;DHT22;35493;50.276;9.372;2023-02-15T02:39:05;2.50;85.40
49413;DHT22;35493;50.276;9.372;2023-02-15T02:41:38;2.50;85.40
49413;DHT22;35493;50.276;9.372;2023-02-15T02:44:12;2.60;85.40
49413;DHT22;35493;50.276;9.372;2023-02-15T02:46:47;2.50;85.30
49413;DHT22;35493;50.276;9.372;2023-02-15T02:49:16;2.50;85.20
49413;DHT22;35493;50.276;9.372;2023-02-15T02:51:43;2.50;85.30
49413;DHT22;35493;50.276;9.372;2023-02-15T02:54:10;2.50;85.20
49413;DHT22;35493;50.276;9.372;2023-02-15T02:56:43;2.50;85.20
49413;DHT22;35493;50.276;9.372;2023-02-15T02:59:16;2.40;85.30
49413;DHT22;35493;50.276;9.372;2023-02-15T03:01:46;2.40;85.40
49413;DHT22;35493;50.276;9.372;2023-02-15T03:04:19;2.40;85.40
49413;DHT22;35493;50.276;9.372;2023-02-15T03:06:49;2.40;85.40
49413;DHT22;35493;50.276;9.372;2023-02-15T03:09:23;2.40;85.40
49413;DHT22;35493;50.276;9.372;2023-02-15T03:12:01;2.40;85.50
49413;DHT22;35493;50.276;9.372;2023-02-15T03:14:30;2.40;85.40
49413;DHT22;35493;50.276;9.372;2023-02-15T03:16:57;2.40;85.60
49413;DHT22;35493;50.276;9.372;2023-02-15T03:19:28;2.40;85.60
49413;DHT22;35493;50.276;9.372;2023-02-15T03:22:00;2.40;85.60
49413;DHT22;35493;50.276;9.372;2023-02-15T03:24:43;2.40;85.50
49413;DHT22;35493;50.276;9.372;2023-02-15T03:27:14;2.40;85.50
49413;DHT22;35493;50.276;9.372;2023-02-15T03:29:45;2.40;85.60
49413;DHT22;35493;50.276;9.372;2023-02-15T03:32:14;2.40;85.50
49413;DHT22;35493;50.276;9.372;2023-02-15T03:34:43;2.40;85.60
49413;DHT22;35493;50.276;9.372;2023-02-15T03:37:15;2.40;85.50
49413;DHT22;35493;50.276;9.372;2023-02-15T03:39:48;2.40;85.50
49413;DHT22;35493;50.276;9.372;2023-02-15T03:42:22;2.40;85.40
49413;DHT22;35493;50.276;9.372;2023-02-15T03:44:56;2.40;85.50
49413;DHT22;35493;50.276;9.372;2023-02-15T03:47:26;2.30;85.60
49413;DHT22;35493;50.276;9.372;2023-02-15T03:49:57;2.30;85.80
49413;DHT22;35493;50.276;9.372;2023-02-15T03:52:28;2.30;85.70
49413;DHT22;35493;50.276;9.372;2023-02-15T03:54:56;2.40;85.80
49413;DHT22;35493;50.276;9.372;2023-02-15T03:57:25;2.40;85.70
49413;DHT22;35493;50.276;9.372;2023-02-15T04:00:13;2.40;85.70
49413;DHT22;35493;50.276;9.372;2023-02-15T04:03:17;2.40;85.60
49413;DHT22;35493;50.276;9.372;2023-02-15T04:05:50;2.40;85.60
49413;DHT22;35493;50.276;9.372;2023-02-15T04:08:17;2.40;85.70
49413;DHT22;35493;50.276;9.372;2023-02-15T04:10:43;2.40;85.70
49413;DHT22;35493;50.276;9.372;2023-02-15T04:13:19;2.40;85.80
49413;DHT22;35493;50.276;9.372;2023-02-15T04:15:46;2.40;85.90
49413;DHT22;35493;50.276;9.372;2023-02-15T04:18:30;2.50;85.80
49413;DHT22;35493;50.276;9.372;2023-02-15T04:21:16;2.50;85.90
49413;DHT22;35493;50.276;9.372;2023-02-15T04:24:01;2.40;86.00
49413;DHT22;35493;50.276;9.372;2023-02-15T04:26:45;2.40;86.20
49413;DHT22;35493;50.276;9.372;2023-02-15T04:29:13;2.40;86.20
49413;DHT22;35493;50.276;9.372;2023-02-15T04:31:40;2.50;86.10
49413;DHT22;35493;50.276;9.372;2023-02-15T04:34:08;2.40;86.10
49413;DHT22;35493;50.276;9.372;2023-02-15T04:36:37;2.40;86.20
49413;DHT22;35493;50.276;9.372;2023-02-15T04:39:04;2.40;86.20
49413;DHT22;35493;50.276;9.372;2023-02-15T04:41:31;2.40;86.00
49413;DHT22;35493;50.276;9.372;2023-02-15T04:44:01;2.40;86.10
49413;DHT22;35493;50.276;9.372;2023-02-15T04:46:28;2.40;86.20
49413;DHT22;35493;50.276;9.372;2023-02-15T04:48:55;2.40;86.20
49413;DHT22;35493;50.276;9.372;2023-02-15T04:51:22;2.40;86.30
49413;DHT22;35493;50.276;9.372;2023-02-15T04:53:51;2.40;86.30
49413;DHT22;35493;50.276;9.372;2023-02-15T04:56:19;2.40;86.20
49413;DHT22;35493;50.276;9.372;2023-02-15T04:58:46;2.40;86.10
49413;DHT22;35493;50.276;9.372;2023-02-15T05:01:13;2.40;86.20
49413;DHT22;35493;50.276;9.372;2023-02-15T05:03:40;2.50;86.10
49413;DHT22;35493;50.276;9.372;2023-02-15T05:06:07;2.50;86.00
49413;DHT22;35493;50.276;9.372;2023-02-15T05:08:34;2.40;86.00
49413;DHT22;35493;50.276;9.372;2023-02-15T05:11:02;2.40;86.00
49413;DHT22;35493;50.276;9.372;2023-02-15T05:13:30;2.40;86.00
49413;DHT22;35493;50.276;9.372;2023-02-15T05:15:58;2.40;86.20
49413;DHT22;35493;50.276;9.372;2023-02-15T05:18:25;2.40;86.20
49413;DHT22;35493;50.276;9.372;2023-02-15T05:20:52;2.40;86.20
49413;DHT22;35493;50.276;9.372;2023-02-15T05:23:18;2.50;86.10
49413;DHT22;35493;50.276;9.372;2023-02-15T05:25:49;2.40;86.00
49413;DHT22;35493;50.276;9.372;2023-02-15T05:28:36;2.40;86.10
49413;DHT22;35493;50.276;9.372;2023-02-15T05:31:06;2.40;86.20
49413;DHT22;35493;50.276;9.372;2023-02-15T05:33:35;2.40;86.20
49413;DHT22;35493;50.276;9.372;2023-02-15T05:36:02;2.30;86.20
49413;DHT22;35493;50.276;9.372;2023-02-15T05:38:30;2.30;86.40
49413;DHT22;35493;50.276;9.372;2023-02-15T05:40:57;2.30;86.40
49413;DHT22;35493;50.276;9.372;2023-02-15T05:43:25;2.30;86.40
49413;DHT22;35493;50.276;9.372;2023-02-15T05:45:54;2.40;86.40
49413;DHT22;35493;50.276;9.372;2023-02-15T05:48:23;2.40;86.30
49413;DHT22;35493;50.276;9.372;2023-02-15T05:50:57;2.40;86.20
49413;DHT22;35493;50.276;9.372;2023-02-15T05:53:25;2.40;86.20
49413;DHT22;35493;50.276;9.372;2023-02-15T05:55:52;2.40;86.30
49413;DHT22;35493;50.276;9.372;2023-02-15T05:58:19;2.40;86.30
49413;DHT22;35493;50.276;9.372;2023-02-15T06:00:46;2.30;86.20
49413;DHT22;35493;50.276;9.372;2023-02-15T06:03:14;2.30;86.10
49413;DHT22;35493;50.276;9.372;2023-02-15T06:05:41;2.30;86.20
49413;DHT22;35493;50.276;9.372;2023-02-15T06:08:09;2.30;86.20
49413;DHT22;35493;50.276;9.372;2023-02-15T06:10:36;2.30;86.10
49413;DHT22;35493;50.276;9.372;2023-02-15T06:13:03;2.30;86.40
49413;DHT22;35493;50.276;9.372;2023-02-15T06:15:29;2.30;86.20
49413;DHT22;35493;50.276;9.372;2023-02-15T06:17:56;2.30;86.30
49413;DHT22;35493;50.276;9.372;2023-02-15T06:20:26;2.30;86.40
49413;DHT22;35493;50.276;9.372;2023-02-15T06:22:53;2.30;86.20
49413;DHT22;35493;50.276;9.372;2023-02-15T06:25:20;2.40;86.10
49413;DHT22;35493;50.276;9.372;2023-02-15T06:27:47;2.40;86.10
49413;DHT22;35493;50.276;9.372;2023-02-15T06:30:15;2.40;86.20
49413;DHT22;35493;50.276;9.372;2023-02-15T06:32:41;2.40;86.20
49413;DHT22;35493;50.276;9.372;2023-02-15T06:35:08;2.30;86.30
49413;DHT22;35493;50.276;9.372;2023-02-15T06:37:38;2.30;86.30
49413;DHT22;35493;50.276;9.372;2023-02-15T06:40:07;2.40;86.20
49413;DHT22;35493;50.276;9.372;2023-02-15T06:42:34;2.40;86.10
49413;DHT22;35493;50.276;9.372;2023-02-15T06:45:00;2.30;86.20
49413;DHT22;35493;50.276;9.372;2023-02-15T06:47:28;2.40;86.20
49413;DHT22;35493;50.276;9.372;2023-02-15T06:49:54;2.30;86.30
49413;DHT22;35493;50.276;9.372;2023-02-15T06:52:21;2.30;86.50
49413;DHT22;35493;50.276;9.372;2023-02-15T06:54:49;2.30;86.50
49413;DHT22;35493;50.276;9.372;2023-02-15T06:57:16;2.30;86.40
49413;DHT22;35493;50.276;9.372;2023-02-15T06:59:43;2.40;86.40
49413;DHT22;35493;50.276;9.372;2023-02-15T07:02:11;2.40;86.40
49413;DHT22;35493;50.276;9.372;2023-02-15T07:04:38;2.40;86.40
49413;DHT22;35493;50.276;9.372;2023-02-15T07:07:08;2.40;86.40
49413;DHT22;35493;50.276;9.372;2023-02-15T07:09:35;2.40;86.40
49413;DHT22;35493;50.276;9.372;2023-02-15T07:12:03;2.40;86.40
49413;DHT22;35493;50.276;9.372;2023-02-15T07:14:48;2.50;86.50
49413;DHT22;35493;50.276;9.372;2023-02-15T07:17:15;2.50;86.50
49413;DHT22;35493;50.276;9.372;2023-02-15T07:19:41;2.50;86.50
49413;DHT22;35493;50.276;9.372;2023-02-15T07:22:08;2.50;86.50
49413;DHT22;35493;50.276;9.372;2023-02-15T07:24:38;2.50;86.50
49413;DHT22;35493;50.276;9.372;2023-02-15T07:27:07;2.60;86.50
49413;DHT22;35493;50.276;9.372;2023-02-15T07:29:34;2.60;86.50
49413;DHT22;35493;50.276;9.372;2023-02-15T07:32:01;2.60;86.30
49413;DHT22;35493;50.276;9.372;2023-02-15T07:34:28;2.60;86.40
49413;DHT22;35493;50.276;9.372;2023-02-15T07:36:57;2.60;86.20
49413;DHT22;35493;50.276;9.372;2023-02-15T07:39:24;2.70;86.20
49413;DHT22;35493;50.276;9.372;2023-02-15T07:41:51;2.60;86.10
49413;DHT22;35493;50.276;9.372;2023-02-15T07:44:19;2.60;86.20
49413;DHT22;35493;50.276;9.372;2023-02-15T07:46:46;2.60;86.00
49413;DHT22;35493;50.276;9.372;2023-02-15T07:49:13;2.60;86.10
49413;DHT22;35493;50.276;9.372;2023-02-15T07:51:41;2.60;86.30
49413;DHT22;35493;50.276;9.372;2023-02-15T07:54:08;2.60;86.20
49413;DHT22;35493;50.276;9.372;2023-02-15T07:56:35;2.60;86.20
49413;DHT22;35493;50.276;9.372;2023-02-15T07:59:02;2.70;86.20
49413;DHT22;35493;50.276;9.372;2023-02-15T08:01:33;2.70;86.10
49413;DHT22;35493;50.276;9.372;2023-02-15T08:04:02;2.70;86.20
49413;DHT22;35493;50.276;9.372;2023-02-15T08:06:32;2.70;86.20
49413;DHT22;35493;50.276;9.372;2023-02-15T08:09:00;2.70;86.10
49413;DHT22;35493;50.276;9.372;2023-02-15T08:11:32;2.70;86.10
49413;DHT22;35493;50.276;9.372;2023-02-15T08:14:04;2.70;86.10
49413;DHT22;35493;50.276;9.372;2023-02-15T08:16:35;2.70;86.10
49413;DHT22;35493;50.276;9.372;2023-02-15T08:19:04;2.70;86.10
49413;DHT22;35493;50.276;9.372;2023-02-15T08:21:32;2.80;86.00
49413;DHT22;35493;50.276;9.372;2023-02-15T08:24:00;2.80;85.90
49413;DHT22;35493;50.276;9.372;2023-02-15T08:26:28;2.70;85.90
49413;DHT22;35493;50.276;9.372;2023-02-15T08:28:55;2.80;85.90
49413;DHT22;35493;50.276;9.372;2023-02-15T08:31:22;2.80;85.90
49413;DHT22;35493;50.276;9.372;2023-02-15T08:33:57;2.80;85.90
49413;DHT22;35493;50.276;9.372;2023-02-15T08:36:27;2.80;86.00
49413;DHT22;35493;50.276;9.372;2023-02-15T08:38:54;2.80;85.90
49413;DHT22;35493;50.276;9.372;2023-02-15T08:41:23;2.80;85.80
49413;DHT22;35493;50.276;9.372;2023-02-15T08:43:52;2.80;85.80
49413;DHT22;35493;50.276;9.372;2023-02-15T08:46:21;2.90;85.90
49413;DHT22;35493;50.276;9.372;2023-02-15T08:48:48;2.90;85.80
49413;DHT22;35493;50.276;9.372;2023-02-15T08:51:18;2.90;85.80
49413;DHT22;35493;50.276;9.372;2023-02-15T08:53:50;2.90;85.70
49413;DHT22;35493;50.276;9.372;2023-02-15T08:56:20;2.90;85.60
49413;DHT22;35493;50.276;9.372;2023-02-15T08:58:47;2.90;85.60
49413;DHT22;35493;50.276;9.372;2023-02-15T09:01:15;2.90;85.60
49413;DHT22;35493;50.276;9.372;2023-02-15T09:03:49;2.90;85.50
49413;DHT22;35493;50.276;9.372;2023-02-15T09:06:20;3.00;85.50
49413;DHT22;35493;50.276;9.372;2023-02-15T09:08:47;3.00;85.50
49413;DHT22;35493;50.276;9.372;2023-02-15T09:11:16;3.00;85.40
49413;DHT22;35493;50.276;9.372;2023-02-15T09:13:49;3.00;85.30
49413;DHT22;35493;50.276;9.372;2023-02-15T09:16:16;3.00;85.40
49413;DHT22;35493;50.276;9.372;2023-02-15T09:18:43;3.10;85.20
49413;DHT22;35493;50.276;9.372;2023-02-15T09:21:12;3.10;85.10
49413;DHT22;35493;50.276;9.372;2023-02-15T09:23:41;3.10;85.00
49413;DHT22;35493;50.276;9.372;2023-02-15T09:26:10;3.10;85.20
49413;DHT22;35493;50.276;9.372;2023-02-15T09:28:37;3.20;85.20
49413;DHT22;35493;50.276;9.372;2023-02-15T09:31:07;3.20;85.30
49413;DHT22;35493;50.276;9.372;2023-02-15T09:33:35;3.30;85.40
49413;DHT22;35493;50.276;9.372;2023-02-15T09:36:02;3.30;85.40
49413;DHT22;35493;50.276;9.372;2023-02-15T09:38:29;3.40;85.40
49413;DHT22;35493;50.276;9.372;2023-02-15T09:41:14;3.50;85.30
49413;DHT22;35493;50.276;9.372;2023-02-15T09:43:52;3.60;85.20
49413;DHT22;35493;50.276;9.372;2023-02-15T09:46:37;3.60;85.20
49413;DHT22;35493;50.276;9.372;2023-02-15T09:49:13;3.50;85.40
49413;DHT22;35493;50.276;9.372;2023-02-15T09:52:12;3.70;85.40
49413;DHT22;35493;50.276;9.372;2023-02-15T09:55:03;3.70;85.10
49413;DHT22;35493;50.276;9.372;2023-02-15T09:57:49;3.80;85.20
49413;DHT22;35493;50.276;9.372;2023-02-15T10:00:24;3.80;85.10
49413;DHT22;35493;50.276;9.372;2023-02-15T10:03:04;3.90;85.00
49413;DHT22;35493;50.276;9.372;2023-02-15T10:05:41;3.80;85.00
49413;DHT22;35493;50.276;9.372;2023-02-15T10:08:24;3.90;85.10
49413;DHT22;35493;50.276;9.372;2023-02-15T10:10:59;3.90;85.10
49413;DHT22;35493;50.276;9.372;2023-02-15T10:13:58;4.00;85.00
49413;DHT22;35493;50.276;9.372;2023-02-15T10:16:33;4.10;84.90
49413;DHT22;35493;50.276;9.372;2023-02-15T10:19:09;4.00;84.90
49413;DHT22;35493;50.276;9.372;2023-02-15T10:21:50;4.00;84.80
49413;DHT22;35493;50.276;9.372;2023-02-15T10:24:38;4.00;84.90
49413;DHT22;35493;50.276;9.372;2023-02-15T10:27:11;4.10;84.90
49413;DHT22;35493;50.276;9.372;2023-02-15T10:29:45;4.10;85.00
49413;DHT22;35493;50.276;9.372;2023-02-15T10:32:22;4.20;84.90
49413;DHT22;35493;50.276;9.372;2023-02-15T10:34:51;4.30;84.50
49413;DHT22;35493;50.276;9.372;2023-02-15T10:40:25;4.40;84.50
49413;DHT22;35493;50.276;9.372;2023-02-15T10:43:06;4.60;84.30
49413;DHT22;35493;50.276;9.372;2023-02-15T10:45:44;4.60;84.30
49413;DHT22;35493;50.276;9.372;2023-02-15T10:48:34;4.60;84.00
49413;DHT22;35493;50.276;9.372;2023-02-15T10:51:06;4.60;84.00
49413;DHT22;35493;50.276;9.372;2023-02-15T10:53:49;4.70;83.80
49413;DHT22;35493;50.276;9.372;2023-02-15T10:56:24;4.70;83.80
49413;DHT22;35493;50.276;9.372;2023-02-15T10:59:03;4.70;83.90
49413;DHT22;35493;50.276;9.372;2023-02-15T11:01:36;4.80;83.70
49413;DHT22;35493;50.276;9.372;2023-02-15T11:04:43;4.90;83.60
49413;DHT22;35493;50.276;9.372;2023-02-15T11:07:16;4.90;83.60
49413;DHT22;35493;50.276;9.372;2023-02-15T11:09:48;5.00;83.50
49413;DHT22;35493;50.276;9.372;2023-02-15T11:12:20;5.00;83.20
49413;DHT22;35493;50.276;9.372;2023-02-15T11:14:52;4.90;83.50
49413;DHT22;35493;50.276;9.372;2023-02-15T11:17:27;5.00;83.30
49413;DHT22;35493;50.276;9.372;2023-02-15T11:20:00;5.10;83.20
49413;DHT22;35493;50.276;9.372;2023-02-15T11:22:30;5.00;83.30
49413;DHT22;35493;50.276;9.372;2023-02-15T11:24:58;5.00;83.30
49413;DHT22;35493;50.276;9.372;2023-02-15T11:27:29;5.10;83.10
49413;DHT22;35493;50.276;9.372;2023-02-15T11:30:00;5.20;83.00
49413;DHT22;35493;50.276;9.372;2023-02-15T11:32:32;5.20;82.90
49413;DHT22;35493;50.276;9.372;2023-02-15T11:35:03;5.20;82.90
49413;DHT22;35493;50.276;9.372;2023-02-15T11:37:36;5.20;83.00
49413;DHT22;35493;50.276;9.372;2023-02-15T11:40:17;5.30;82.80
49413;DHT22;35493;50.276;9.372;2023-02-15T11:42:47;5.40;82.70
49413;DHT22;35493;50.276;9.372;2023-02-15T11:45:22;5.40;82.90
49413;DHT22;35493;50.276;9.372;2023-02-15T11:47:52;5.50;82.70
49413;DHT22;35493;50.276;9.372;2023-02-15T11:50:22;5.50;82.50
49413;DHT22;35493;50.276;9.372;2023-02-15T11:52:51;5.60;82.40
49413;DHT22;35493;50.276;9.372;2023-02-15T11:55:21;5.60;82.20
49413;DHT22;35493;50.276;9.372;2023-02-15T11:57:53;5.70;82.10
49413;DHT22;35493;50.276;9.372;2023-02-15T12:00:31;5.70;82.20
49413;DHT22;35493;50.276;9.372;2023-02-15T12:03:10;5.70;82.00
49413;DHT22;35493;50.276;9.372;2023-02-15T12:05:42;5.70;81.90
49413;DHT22;35493;50.276;9.372;2023-02-15T12:08:16;5.70;81.70
49413;DHT22;35493;50.276;9.372;2023-02-15T12:10:53;5.80;81.80
49413;DHT22;35493;50.276;9.372;2023-02-15T12:13:22;5.80;81.80
49413;DHT22;35493;50.276;9.372;2023-02-15T12:15:52;5.90;81.70
49413;DHT22;35493;50.276;9.372;2023-02-15T12:18:36;5.90;81.60
49413;DHT22;35493;50.276;9.372;2023-02-15T12:21:06;5.90;81.90
49413;DHT22;35493;50.276;9.372;2023-02-15T12:23:39;5.90;82.10
49413;DHT22;35493;50.276;9.372;2023-02-15T12:26:08;6.00;81.70
49413;DHT22;35493;50.276;9.372;2023-02-15T12:28:37;6.00;81.70
49413;DHT22;35493;50.276;9.372;2023-02-15T12:31:10;6.00;81.70
49413;DHT22;35493;50.276;9.372;2023-02-15T12:33:46;6.00;81.40
49413;DHT22;35493;50.276;9.372;2023-02-15T12:36:18;6.00;81.30
49413;DHT22;35493;50.276;9.372;2023-02-15T12:39:04;6.00;81.30
49413;DHT22;35493;50.276;9.372;2023-02-15T12:41:31;5.90;81.40
49413;DHT22;35493;50.276;9.372;2023-02-15T12:44:09;5.90;81.40
49413;DHT22;35493;50.276;9.372;2023-02-15T12:46:56;5.90;81.40
49413;DHT22;35493;50.276;9.372;2023-02-15T12:49:25;5.90;81.60
49413;DHT22;35493;50.276;9.372;2023-02-15T12:51:54;5.90;81.70
49413;DHT22;35493;50.276;9.372;2023-02-15T12:54:37;5.80;81.70
49413;DHT22;35493;50.276;9.372;2023-02-15T12:57:29;5.80;81.90
49413;DHT22;35493;50.276;9.372;2023-02-15T13:00:02;5.80;82.00
49413;DHT22;35493;50.276;9.372;2023-02-15T13:02:41;5.70;82.30
49413;DHT22;35493;50.276;9.372;2023-02-15T13:05:25;5.70;82.40
49413;DHT22;35493;50.276;9.372;2023-02-15T13:07:56;5.70;82.30
49413;DHT22;35493;50.276;9.372;2023-02-15T13:10:26;5.70;82.30
49413;DHT22;35493;50.276;9.372;2023-02-15T13:12:53;5.70;82.30
49413;DHT22;35493;50.276;9.372;2023-02-15T13:15:26;5.70;82.20
49413;DHT22;35493;50.276;9.372;2023-02-15T13:17:55;5.70;82.10
49413;DHT22;35493;50.276;9.372;2023-02-15T13:20:24;5.70;82.20
49413;DHT22;35493;50.276;9.372;2023-02-15T13:22:56;5.70;82.10
49413;DHT22;35493;50.276;9.372;2023-02-15T13:25:26;5.60;82.20
49413;DHT22;35493;50.276;9.372;2023-02-15T13:27:57;5.60;82.20
49413;DHT22;35493;50.276;9.372;2023-02-15T13:30:27;5.60;82.90
49413;DHT22;35493;50.276;9.372;2023-02-15T13:32:59;5.60;82.60
49413;DHT22;35493;50.276;9.372;2023-02-15T13:35:36;5.60;82.40
49413;DHT22;35493;50.276;9.372;2023-02-15T13:38:17;5.60;82.50
49413;DHT22;35493;50.276;9.372;2023-02-15T13:40:52;5.50;82.60
49413;DHT22;35493;50.276;9.372;2023-02-15T13:43:38;5.60;82.50
49413;DHT22;35493;50.276;9.372;2023-02-15T13:46:18;5.50;82.50
49413;DHT22;35493;50.276;9.372;2023-02-15T13:48:57;5.50;82.70
49413;DHT22;35493;50.276;9.372;2023-02-15T13:51:30;5.50;82.60
49413;DHT22;35493;50.276;9.372;2023-02-15T13:57:18;5.40;82.70
49413;DHT22;35493;50.276;9.372;2023-02-15T13:59:56;5.40;82.70
49413;DHT22;35493;50.276;9.372;2023-02-15T14:02:55;5.40;82.80
49413;DHT22;35493;50.276;9.372;2023-02-15T14:05:32;5.40;82.80
49413;DHT22;35493;50.276;9.372;2023-02-15T14:08:11;5.30;82.70
49413;DHT22;35493;50.276;9.372;2023-02-15T14:10:44;5.40;82.80
49413;DHT22;35493;50.276;9.372;2023-02-15T14:16:16;5.30;82.70
49413;DHT22;35493;50.276;9.372;2023-02-15T14:18:47;5.30;82.70
49413;DHT22;35493;50.276;9.372;2023-02-15T14:21:19;5.20;82.70
49413;DHT22;35493;50.276;9.372;2023-02-15T14:23:59;5.20;82.60
49413;DHT22;35493;50.276;9.372;2023-02-15T14:26:33;5.20;82.70
49413;DHT22;35493;50.276;9.372;2023-02-15T14:29:13;5.20;82.80
49413;DHT22;35493;50.276;9.372;2023-02-15T14:31:45;5.20;82.70
49413;DHT22;35493;50.276;9.372;2023-02-15T14:34:19;5.20;82.80
49413;DHT22;35493;50.276;9.372;2023-02-15T14:36:49;5.10;82.80
49413;DHT22;35493;50.276;9.372;2023-02-15T14:39:25;5.10;82.70
49413;DHT22;35493;50.276;9.372;2023-02-15T14:42:17;5.10;82.90
49413;DHT22;35493;50.276;9.372;2023-02-15T14:44:51;5.10;82.80
49413;DHT22;35493;50.276;9.372;2023-02-15T14:47:22;5.10;82.90
49413;DHT22;35493;50.276;9.372;2023-02-15T14:49:52;5.10;82.80
49413;DHT22;35493;50.276;9.372;2023-02-15T14:52:19;5.10;82.90
49413;DHT22;35493;50.276;9.372;2023-02-15T14:54:57;5.10;82.80
49413;DHT22;35493;50.276;9.372;2023-02-15T14:57:26;5.00;82.90
49413;DHT22;35493;50.276;9.372;2023-02-15T14:59:57;5.00;83.00
49413;DHT22;35493;50.276;9.372;2023-02-15T15:02:26;5.00;82.90
49413;DHT22;35493;50.276;9.372;2023-02-15T15:05:00;4.90;82.90
49413;DHT22;35493;50.276;9.372;2023-02-15T15:07:35;4.90;83.20
49413;DHT22;35493;50.276;9.372;2023-02-15T15:10:06;4.90;83.10
49413;DHT22;35493;50.276;9.372;2023-02-15T15:12:44;4.90;83.10
49413;DHT22;35493;50.276;9.372;2023-02-15T15:15:12;4.90;83.00
49413;DHT22;35493;50.276;9.372;2023-02-15T15:17:56;4.90;83.10
49413;DHT22;35493;50.276;9.372;2023-02-15T15:20:46;4.80;83.10
49413;DHT22;35493;50.276;9.372;2023-02-15T15:23:39;4.80;83.10
49413;DHT22;35493;50.276;9.372;2023-02-15T15:26:26;4.80;83.20
49413;DHT22;35493;50.276;9.372;2023-02-15T15:28:55;4.80;83.20
49413;DHT22;35493;50.276;9.372;2023-02-15T15:31:27;4.70;83.40
49413;DHT22;35493;50.276;9.372;2023-02-15T15:34:21;4.70;83.20
49413;DHT22;35493;50.276;9.372;2023-02-15T15:40:28;4.70;83.40
49413;DHT22;35493;50.276;9.372;2023-02-15T15:46:27;4.70;83.40
49413;DHT22;35493;50.276;9.372;2023-02-15T15:49:01;4.60;83.50
49413;DHT22;35493;50.276;9.372;2023-02-15T15:51:31;4.50;83.50
49413;DHT22;35493;50.276;9.372;2023-02-15T15:54:00;4.40;83.70
49413;DHT22;35493;50.276;9.372;2023-02-15T15:56:30;4.40;83.90
49413;DHT22;35493;50.276;9.372;2023-02-15T15:59:00;4.40;83.80
49413;DHT22;35493;50.276;9.372;2023-02-15T16:01:30;4.40;83.70
49413;DHT22;35493;50.276;9.372;2023-02-15T16:03:59;4.40;83.60
49413;DHT22;35493;50.276;9.372;2023-02-15T16:06:33;4.30;83.90
49413;DHT22;35493;50.276;9.372;2023-02-15T16:09:11;4.30;83.90
49413;DHT22;35493;50.276;9.372;2023-02-15T16:11:39;4.30;84.00
49413;DHT22;35493;50.276;9.372;2023-02-15T16:14:12;4.30;83.90
49413;DHT22;35493;50.276;9.372;2023-02-15T16:16:41;4.30;83.80
49413;DHT22;35493;50.276;9.372;2023-02-15T16:19:19;4.20;83.80
49413;DHT22;35493;50.276;9.372;2023-02-15T16:21:47;4.20;83.90
49413;DHT22;35493;50.276;9.372;2023-02-15T16:24:24;4.10;84.00
49413;DHT22;35493;50.276;9.372;2023-02-15T16:29:48;4.00;84.30
49413;DHT22;35493;50.276;9.372;2023-02-15T16:32:20;4.00;84.20
49413;DHT22;35493;50.276;9.372;2023-02-15T16:34:51;3.90;84.00
49413;DHT22;35493;50.276;9.372;2023-02-15T16:37:20;3.90;84.20
49413;DHT22;35493;50.276;9.372;2023-02-15T16:39:49;3.80;84.20